sensor_id;sensor_type;location;lat;lon;timestamp;P1;durP1;ratioP1;P2;durP2;ratioP2
32347;SDS011;18821;44.800;10.326;2023-03-14T00:01:23;25.27;;;14.35;;
32347;SDS011;18821;44.800;10.326;2023-03-14T00:03:49;27.20;;;13.98;;
32347;SDS011;18821;44.800;10.326;2023-03-14T00:06:16;22.35;;;13.65;;
32347;SDS011;18821;44.800;10.326;2023-03-14T00:08:43;24.33;;;13.95;;
32347;SDS011;18821;44.800;10.326;2023-03-14T00:11:11;28.33;;;13.32;;
32347;SDS011;18821;44.800;10.326;2023-03-14T00:13:42;25.20;;;13.43;;
32347;SDS011;18821;44.800;10.326;2023-03-14T00:16:09;24.60;;;13.65;;
32347;SDS011;18821;44.800;10.326;2023-03-14T00:18:37;21.42;;;13.60;;
32347;SDS011;18821;44.800;10.326;2023-03-14T00:21:05;27.77;;;13.40;;
32347;SDS011;18821;44.800;10.326;2023-03-14T00:23:32;31.08;;;14.20;;
32347;SDS011;18821;44.800;10.326;2023-03-14T00:25:59;21.23;;;13.38;;
32347;SDS011;18821;44.800;10.326;2023-03-14T00:28:26;25.75;;;15.20;;
32347;SDS011;18821;44.800;10.326;2023-03-14T00:30:53;26.20;;;13.27;;
32347;SDS011;18821;44.800;10.326;2023-03-14T00:33:19;22.40;;;12.70;;
32347;SDS011;18821;44.800;10.326;2023-03-14T00:36:06;24.70;;;12.77;;
32347;SDS011;18821;44.800;10.326;2023-03-14T00:38:36;27.13;;;13.90;;
32347;SDS011;18821;44.800;10.326;2023-03-14T00:41:07;26.83;;;14.63;;
32347;SDS011;18821;44.800;10.326;2023-03-14T00:43:37;21.55;;;13.88;;
32347;SDS011;18821;44.800;10.326;2023-03-14T00:46:03;25.23;;;13.80;;
32347;SDS011;18821;44.800;10.326;2023-03-14T00:48:30;28.75;;;17.95;;
32347;SDS011;18821;44.800;10.326;2023-03-14T00:50:56;32.80;;;18.30;;
32347;SDS011;18821;44.800;10.326;2023-03-14T00:53:22;29.55;;;18.30;;
32347;SDS011;18821;44.800;10.326;2023-03-14T00:55:49;30.40;;;17.48;;
32347;SDS011;18821;44.800;10.326;2023-03-14T00:58:16;29.10;;;18.08;;
32347;SDS011;18821;44.800;10.326;2023-03-14T01:00:43;33.72;;;18.58;;
32347;SDS011;18821;44.800;10.326;2023-03-14T01:03:11;34.58;;;18.77;;
32347;SDS011;18821;44.800;10.326;2023-03-14T01:05:38;26.13;;;17.45;;
32347;SDS011;18821;44.800;10.326;2023-03-14T01:08:05;28.40;;;17.83;;
32347;SDS011;18821;44.800;10.326;2023-03-14T01:10:40;28.90;;;16.45;;
32347;SDS011;18821;44.800;10.326;2023-03-14T01:13:07;32.85;;;18.80;;
32347;SDS011;18821;44.800;10.326;2023-03-14T01:15:35;35.30;;;20.25;;
32347;SDS011;18821;44.800;10.326;2023-03-14T01:18:02;35.53;;;19.95;;
32347;SDS011;18821;44.800;10.326;2023-03-14T01:20:29;36.22;;;21.25;;
32347;SDS011;18821;44.800;10.326;2023-03-14T01:22:55;42.15;;;21.73;;
32347;SDS011;18821;44.800;10.326;2023-03-14T01:25:22;32.92;;;21.17;;
32347;SDS011;18821;44.800;10.326;2023-03-14T01:27:48;38.22;;;20.23;;
32347;SDS011;18821;44.800;10.326;2023-03-14T01:30:14;33.15;;;19.63;;
32347;SDS011;18821;44.800;10.326;2023-03-14T01:32:40;42.00;;;20.00;;
32347;SDS011;18821;44.800;10.326;2023-03-14T01:35:06;32.20;;;17.70;;
32347;SDS011;18821;44.800;10.326;2023-03-14T01:37:33;30.05;;;17.48;;
32347;SDS011;18821;44.800;10.326;2023-03-14T01:40:00;25.38;;;16.80;;
32347;SDS011;18821;44.800;10.326;2023-03-14T01:42:26;30.88;;;17.15;;
32347;SDS011;18821;44.800;10.326;2023-03-14T01:47:22;36.15;;;17.55;;
32347;SDS011;18821;44.800;10.326;2023-03-14T01:50:00;33.63;;;16.70;;
32347;SDS011;18821;44.800;10.326;2023-03-14T01:52:32;27.23;;;17.30;;
32347;SDS011;18821;44.800;10.326;2023-03-14T01:55:06;27.73;;;17.30;;
32347;SDS011;18821;44.800;10.326;2023-03-14T01:57:37;32.22;;;15.82;;
32347;SDS011;18821;44.800;10.326;2023-03-14T02:00:22;25.92;;;14.82;;
32347;SDS011;18821;44.800;10.326;2023-03-14T02:02:50;35.45;;;14.82;;
32347;SDS011;18821;44.800;10.326;2023-03-14T02:05:23;24.08;;;15.07;;
32347;SDS011;18821;44.800;10.326;2023-03-14T02:08:01;27.80;;;14.43;;
32347;SDS011;18821;44.800;10.326;2023-03-14T02:10:35;27.00;;;13.75;;
32347;SDS011;18821;44.800;10.326;2023-03-14T02:13:06;27.25;;;15.43;;
32347;SDS011;18821;44.800;10.326;2023-03-14T02:15:53;23.50;;;13.82;;
32347;SDS011;18821;44.800;10.326;2023-03-14T02:18:37;21.30;;;13.93;;
32347;SDS011;18821;44.800;10.326;2023-03-14T02:21:38;23.55;;;14.32;;
32347;SDS011;18821;44.800;10.326;2023-03-14T02:25:06;27.83;;;15.65;;
32347;SDS011;18821;44.800;10.326;2023-03-14T02:27:14;23.60;;;15.27;;
32347;SDS011;18821;44.800;10.326;2023-03-14T02:29:45;26.10;;;15.93;;
32347;SDS011;18821;44.800;10.326;2023-03-14T02:32:14;21.83;;;14.40;;
32347;SDS011;18821;44.800;10.326;2023-03-14T02:34:42;24.85;;;14.10;;
32347;SDS011;18821;44.800;10.326;2023-03-14T02:37:12;28.75;;;16.92;;
32347;SDS011;18821;44.800;10.326;2023-03-14T02:39:42;25.83;;;17.40;;
32347;SDS011;18821;44.800;10.326;2023-03-14T02:42:12;25.75;;;16.50;;
32347;SDS011;18821;44.800;10.326;2023-03-14T02:44:55;30.42;;;17.50;;
32347;SDS011;18821;44.800;10.326;2023-03-14T02:47:49;37.08;;;19.13;;
32347;SDS011;18821;44.800;10.326;2023-03-14T02:50:22;38.53;;;21.75;;
32347;SDS011;18821;44.800;10.326;2023-03-14T02:52:55;38.78;;;21.58;;
32347;SDS011;18821;44.800;10.326;2023-03-14T02:55:22;35.33;;;21.38;;
32347;SDS011;18821;44.800;10.326;2023-03-14T02:57:50;41.55;;;23.08;;
32347;SDS011;18821;44.800;10.326;2023-03-14T03:00:16;44.83;;;24.10;;
32347;SDS011;18821;44.800;10.326;2023-03-14T03:02:43;39.80;;;24.95;;
32347;SDS011;18821;44.800;10.326;2023-03-14T03:05:09;40.00;;;25.08;;
32347;SDS011;18821;44.800;10.326;2023-03-14T03:07:35;44.80;;;27.23;;
32347;SDS011;18821;44.800;10.326;2023-03-14T03:10:01;40.10;;;26.75;;
32347;SDS011;18821;44.800;10.326;2023-03-14T03:12:28;42.75;;;27.92;;
32347;SDS011;18821;44.800;10.326;2023-03-14T03:14:54;43.67;;;26.60;;
32347;SDS011;18821;44.800;10.326;2023-03-14T03:17:20;43.83;;;28.80;;
32347;SDS011;18821;44.800;10.326;2023-03-14T03:19:46;49.55;;;28.98;;
32347;SDS011;18821;44.800;10.326;2023-03-14T03:22:12;40.47;;;27.23;;
32347;SDS011;18821;44.800;10.326;2023-03-14T03:24:40;47.95;;;28.90;;
32347;SDS011;18821;44.800;10.326;2023-03-14T03:27:06;47.70;;;28.48;;
32347;SDS011;18821;44.800;10.326;2023-03-14T03:29:32;44.47;;;27.83;;
32347;SDS011;18821;44.800;10.326;2023-03-14T03:31:58;45.53;;;28.55;;
32347;SDS011;18821;44.800;10.326;2023-03-14T03:34:24;43.97;;;26.65;;
32347;SDS011;18821;44.800;10.326;2023-03-14T03:36:55;51.55;;;28.95;;
32347;SDS011;18821;44.800;10.326;2023-03-14T03:39:22;48.53;;;28.50;;
32347;SDS011;18821;44.800;10.326;2023-03-14T03:41:48;45.70;;;29.27;;
32347;SDS011;18821;44.800;10.326;2023-03-14T03:44:14;46.55;;;29.60;;
32347;SDS011;18821;44.800;10.326;2023-03-14T03:46:40;52.53;;;30.58;;
32347;SDS011;18821;44.800;10.326;2023-03-14T03:49:07;42.78;;;28.88;;
32347;SDS011;18821;44.800;10.326;2023-03-14T03:51:33;50.83;;;29.48;;
32347;SDS011;18821;44.800;10.326;2023-03-14T03:53:59;42.65;;;26.83;;
32347;SDS011;18821;44.800;10.326;2023-03-14T03:56:31;45.03;;;25.42;;
32347;SDS011;18821;44.800;10.326;2023-03-14T03:58:57;49.88;;;30.13;;
32347;SDS011;18821;44.800;10.326;2023-03-14T04:01:23;52.88;;;30.90;;
32347;SDS011;18821;44.800;10.326;2023-03-14T04:03:52;52.65;;;30.90;;
32347;SDS011;18821;44.800;10.326;2023-03-14T04:06:19;49.67;;;31.35;;
32347;SDS011;18821;44.800;10.326;2023-03-14T04:08:47;51.20;;;29.23;;
32347;SDS011;18821;44.800;10.326;2023-03-14T04:11:26;52.00;;;29.52;;
32347;SDS011;18821;44.800;10.326;2023-03-14T04:14:15;47.17;;;30.83;;
32347;SDS011;18821;44.800;10.326;2023-03-14T04:16:41;48.70;;;30.23;;
32347;SDS011;18821;44.800;10.326;2023-03-14T04:19:11;50.20;;;30.45;;
32347;SDS011;18821;44.800;10.326;2023-03-14T04:21:37;49.17;;;30.67;;
32347;SDS011;18821;44.800;10.326;2023-03-14T04:24:08;45.20;;;28.98;;
32347;SDS011;18821;44.800;10.326;2023-03-14T04:26:34;58.10;;;30.98;;
32347;SDS011;18821;44.800;10.326;2023-03-14T04:29:00;44.45;;;28.63;;
32347;SDS011;18821;44.800;10.326;2023-03-14T04:31:26;49.08;;;28.85;;
32347;SDS011;18821;44.800;10.326;2023-03-14T04:33:52;45.25;;;29.23;;
32347;SDS011;18821;44.800;10.326;2023-03-14T04:36:27;47.38;;;28.55;;
32347;SDS011;18821;44.800;10.326;2023-03-14T04:38:53;53.80;;;28.90;;
32347;SDS011;18821;44.800;10.326;2023-03-14T04:41:20;56.90;;;30.25;;
32347;SDS011;18821;44.800;10.326;2023-03-14T04:43:46;49.78;;;28.60;;
32347;SDS011;18821;44.800;10.326;2023-03-14T04:46:13;51.50;;;29.10;;
32347;SDS011;18821;44.800;10.326;2023-03-14T04:48:39;47.28;;;28.63;;
32347;SDS011;18821;44.800;10.326;2023-03-14T04:51:06;50.08;;;29.95;;
32347;SDS011;18821;44.800;10.326;2023-03-14T04:53:33;45.10;;;27.33;;
32347;SDS011;18821;44.800;10.326;2023-03-14T04:56:04;51.53;;;29.92;;
32347;SDS011;18821;44.800;10.326;2023-03-14T04:58:36;52.55;;;29.17;;
32347;SDS011;18821;44.800;10.326;2023-03-14T05:01:04;51.45;;;30.13;;
32347;SDS011;18821;44.800;10.326;2023-03-14T05:03:39;52.25;;;33.08;;
32347;SDS011;18821;44.800;10.326;2023-03-14T05:06:26;55.83;;;31.00;;
32347;SDS011;18821;44.800;10.326;2023-03-14T05:09:23;47.88;;;27.75;;
32347;SDS011;18821;44.800;10.326;2023-03-14T05:12:07;47.22;;;30.70;;
32347;SDS011;18821;44.800;10.326;2023-03-14T05:14:52;53.30;;;28.10;;
32347;SDS011;18821;44.800;10.326;2023-03-14T05:17:24;59.58;;;35.35;;
32347;SDS011;18821;44.800;10.326;2023-03-14T05:20:08;58.50;;;35.10;;
32347;SDS011;18821;44.800;10.326;2023-03-14T05:23:10;47.17;;;27.45;;
32347;SDS011;18821;44.800;10.326;2023-03-14T05:28:32;64.68;;;37.55;;
32347;SDS011;18821;44.800;10.326;2023-03-14T05:31:24;62.33;;;36.40;;
32347;SDS011;18821;44.800;10.326;2023-03-14T05:34:10;65.28;;;35.20;;
32347;SDS011;18821;44.800;10.326;2023-03-14T05:36:48;63.85;;;38.38;;
32347;SDS011;18821;44.800;10.326;2023-03-14T05:39:33;67.18;;;38.58;;
32347;SDS011;18821;44.800;10.326;2023-03-14T05:42:10;66.50;;;38.83;;
32347;SDS011;18821;44.800;10.326;2023-03-14T05:45:08;67.68;;;38.00;;
32347;SDS011;18821;44.800;10.326;2023-03-14T05:47:54;67.75;;;38.35;;
32347;SDS011;18821;44.800;10.326;2023-03-14T05:50:41;70.68;;;40.38;;
32347;SDS011;18821;44.800;10.326;2023-03-14T05:53:31;69.82;;;40.85;;
32347;SDS011;18821;44.800;10.326;2023-03-14T05:56:14;67.57;;;38.20;;
32347;SDS011;18821;44.800;10.326;2023-03-14T05:59:06;68.28;;;38.00;;
32347;SDS011;18821;44.800;10.326;2023-03-14T06:01:57;78.57;;;40.90;;
32347;SDS011;18821;44.800;10.326;2023-03-14T06:04:26;69.03;;;38.28;;
32347;SDS011;18821;44.800;10.326;2023-03-14T06:06:55;68.63;;;38.28;;
32347;SDS011;18821;44.800;10.326;2023-03-14T06:09:22;62.58;;;36.92;;
32347;SDS011;18821;44.800;10.326;2023-03-14T06:11:49;63.88;;;37.95;;
32347;SDS011;18821;44.800;10.326;2023-03-14T06:14:16;68.28;;;39.08;;
32347;SDS011;18821;44.800;10.326;2023-03-14T06:16:45;67.10;;;38.80;;
32347;SDS011;18821;44.800;10.326;2023-03-14T06:19:13;62.80;;;36.22;;
32347;SDS011;18821;44.800;10.326;2023-03-14T06:21:41;54.00;;;33.35;;
32347;SDS011;18821;44.800;10.326;2023-03-14T06:24:07;60.33;;;34.42;;
32347;SDS011;18821;44.800;10.326;2023-03-14T06:26:38;60.78;;;38.45;;
32347;SDS011;18821;44.800;10.326;2023-03-14T06:29:04;63.22;;;35.47;;
32347;SDS011;18821;44.800;10.326;2023-03-14T06:31:32;70.10;;;37.75;;
32347;SDS011;18821;44.800;10.326;2023-03-14T06:34:03;65.03;;;36.80;;
32347;SDS011;18821;44.800;10.326;2023-03-14T06:36:30;53.63;;;30.05;;
32347;SDS011;18821;44.800;10.326;2023-03-14T06:38:57;53.55;;;31.73;;
32347;SDS011;18821;44.800;10.326;2023-03-14T06:41:25;53.60;;;33.45;;
32347;SDS011;18821;44.800;10.326;2023-03-14T06:43:52;54.72;;;34.08;;
32347;SDS011;18821;44.800;10.326;2023-03-14T06:46:19;51.67;;;34.00;;
32347;SDS011;18821;44.800;10.326;2023-03-14T06:48:46;51.95;;;33.63;;
32347;SDS011;18821;44.800;10.326;2023-03-14T06:51:12;57.20;;;34.17;;
32347;SDS011;18821;44.800;10.326;2023-03-14T06:53:39;56.38;;;33.47;;
32347;SDS011;18821;44.800;10.326;2023-03-14T06:56:06;56.05;;;34.33;;
32347;SDS011;18821;44.800;10.326;2023-03-14T06:58:33;49.38;;;33.03;;
32347;SDS011;18821;44.800;10.326;2023-03-14T07:01:01;60.40;;;32.42;;
32347;SDS011;18821;44.800;10.326;2023-03-14T07:03:32;47.35;;;30.77;;
32347;SDS011;18821;44.800;10.326;2023-03-14T07:06:00;53.15;;;33.05;;
32347;SDS011;18821;44.800;10.326;2023-03-14T07:08:26;54.60;;;33.05;;
32347;SDS011;18821;44.800;10.326;2023-03-14T07:10:52;61.13;;;33.08;;
32347;SDS011;18821;44.800;10.326;2023-03-14T07:13:21;51.38;;;33.78;;
32347;SDS011;18821;44.800;10.326;2023-03-14T07:15:53;47.13;;;30.60;;
32347;SDS011;18821;44.800;10.326;2023-03-14T07:18:19;46.20;;;28.40;;
32347;SDS011;18821;44.800;10.326;2023-03-14T07:20:45;43.30;;;29.52;;
32347;SDS011;18821;44.800;10.326;2023-03-14T07:23:13;51.53;;;29.55;;
32347;SDS011;18821;44.800;10.326;2023-03-14T07:25:45;49.25;;;31.75;;
32347;SDS011;18821;44.800;10.326;2023-03-14T07:28:12;51.83;;;30.10;;
32347;SDS011;18821;44.800;10.326;2023-03-14T07:30:40;49.55;;;29.67;;
32347;SDS011;18821;44.800;10.326;2023-03-14T07:33:15;49.22;;;29.05;;
32347;SDS011;18821;44.800;10.326;2023-03-14T07:35:42;46.33;;;30.17;;
32347;SDS011;18821;44.800;10.326;2023-03-14T07:38:08;44.20;;;29.70;;
32347;SDS011;18821;44.800;10.326;2023-03-14T07:40:39;45.63;;;30.55;;
32347;SDS011;18821;44.800;10.326;2023-03-14T07:43:05;46.88;;;28.58;;
32347;SDS011;18821;44.800;10.326;2023-03-14T07:45:47;44.38;;;28.38;;
32347;SDS011;18821;44.800;10.326;2023-03-14T07:48:13;48.10;;;28.23;;
32347;SDS011;18821;44.800;10.326;2023-03-14T07:50:39;40.95;;;28.35;;
32347;SDS011;18821;44.800;10.326;2023-03-14T07:53:05;46.83;;;28.83;;
32347;SDS011;18821;44.800;10.326;2023-03-14T07:55:31;39.03;;;28.25;;
32347;SDS011;18821;44.800;10.326;2023-03-14T07:57:57;45.13;;;27.83;;
32347;SDS011;18821;44.800;10.326;2023-03-14T08:00:23;41.47;;;26.15;;
32347;SDS011;18821;44.800;10.326;2023-03-14T08:02:49;38.10;;;25.67;;
32347;SDS011;18821;44.800;10.326;2023-03-14T08:05:14;40.35;;;27.30;;
32347;SDS011;18821;44.800;10.326;2023-03-14T08:07:41;37.92;;;24.25;;
32347;SDS011;18821;44.800;10.326;2023-03-14T08:10:07;32.95;;;23.38;;
32347;SDS011;18821;44.800;10.326;2023-03-14T08:12:33;35.58;;;22.38;;
32347;SDS011;18821;44.800;10.326;2023-03-14T08:14:59;39.83;;;22.58;;
32347;SDS011;18821;44.800;10.326;2023-03-14T08:17:27;32.40;;;21.35;;
32347;SDS011;18821;44.800;10.326;2023-03-14T08:19:53;30.55;;;20.88;;
32347;SDS011;18821;44.800;10.326;2023-03-14T08:22:19;28.13;;;20.60;;
32347;SDS011;18821;44.800;10.326;2023-03-14T08:24:45;33.25;;;21.98;;
32347;SDS011;18821;44.800;10.326;2023-03-14T08:27:11;31.73;;;21.90;;
32347;SDS011;18821;44.800;10.326;2023-03-14T08:29:39;34.58;;;20.92;;
32347;SDS011;18821;44.800;10.326;2023-03-14T08:32:06;36.38;;;21.48;;
32347;SDS011;18821;44.800;10.326;2023-03-14T08:34:33;29.38;;;20.48;;
32347;SDS011;18821;44.800;10.326;2023-03-14T08:36:59;29.10;;;19.85;;
32347;SDS011;18821;44.800;10.326;2023-03-14T08:39:25;31.52;;;20.58;;
32347;SDS011;18821;44.800;10.326;2023-03-14T08:41:51;29.48;;;19.23;;
32347;SDS011;18821;44.800;10.326;2023-03-14T08:44:16;31.73;;;19.90;;
32347;SDS011;18821;44.800;10.326;2023-03-14T08:46:42;39.20;;;20.02;;
32347;SDS011;18821;44.800;10.326;2023-03-14T08:49:08;30.08;;;20.27;;
32347;SDS011;18821;44.800;10.326;2023-03-14T08:51:34;27.63;;;19.67;;
32347;SDS011;18821;44.800;10.326;2023-03-14T08:54:00;26.55;;;19.55;;
32347;SDS011;18821;44.800;10.326;2023-03-14T08:56:26;33.80;;;20.52;;
32347;SDS011;18821;44.800;10.326;2023-03-14T08:58:52;26.45;;;18.60;;
32347;SDS011;18821;44.800;10.326;2023-03-14T09:01:18;28.20;;;17.25;;
32347;SDS011;18821;44.800;10.326;2023-03-14T09:03:44;24.88;;;16.77;;
32347;SDS011;18821;44.800;10.326;2023-03-14T09:06:11;28.35;;;17.17;;
32347;SDS011;18821;44.800;10.326;2023-03-14T09:08:37;27.65;;;17.85;;
32347;SDS011;18821;44.800;10.326;2023-03-14T09:11:03;28.75;;;18.50;;
32347;SDS011;18821;44.800;10.326;2023-03-14T09:13:32;26.90;;;16.83;;
32347;SDS011;18821;44.800;10.326;2023-03-14T09:15:58;27.88;;;18.02;;
32347;SDS011;18821;44.800;10.326;2023-03-14T09:18:24;26.23;;;17.40;;
32347;SDS011;18821;44.800;10.326;2023-03-14T09:20:50;24.60;;;16.92;;
32347;SDS011;18821;44.800;10.326;2023-03-14T09:23:16;30.08;;;17.15;;
32347;SDS011;18821;44.800;10.326;2023-03-14T09:25:42;29.50;;;18.75;;
32347;SDS011;18821;44.800;10.326;2023-03-14T09:28:08;29.08;;;18.45;;
32347;SDS011;18821;44.800;10.326;2023-03-14T09:30:34;28.13;;;19.73;;
32347;SDS011;18821;44.800;10.326;2023-03-14T09:33:00;33.22;;;19.80;;
32347;SDS011;18821;44.800;10.326;2023-03-14T09:35:26;33.60;;;19.40;;
32347;SDS011;18821;44.800;10.326;2023-03-14T09:37:52;28.45;;;15.85;;
32347;SDS011;18821;44.800;10.326;2023-03-14T09:40:18;26.05;;;14.68;;
32347;SDS011;18821;44.800;10.326;2023-03-14T09:42:47;27.38;;;15.27;;
32347;SDS011;18821;44.800;10.326;2023-03-14T09:48:12;21.98;;;12.70;;
32347;SDS011;18821;44.800;10.326;2023-03-14T09:50:46;21.38;;;12.52;;
32347;SDS011;18821;44.800;10.326;2023-03-14T09:53:19;21.58;;;13.55;;
32347;SDS011;18821;44.800;10.326;2023-03-14T09:55:50;23.55;;;13.05;;
32347;SDS011;18821;44.800;10.326;2023-03-14T09:58:20;15.68;;;10.50;;
32347;SDS011;18821;44.800;10.326;2023-03-14T10:00:49;19.50;;;12.60;;
32347;SDS011;18821;44.800;10.326;2023-03-14T10:03:31;19.38;;;12.07;;
32347;SDS011;18821;44.800;10.326;2023-03-14T10:05:58;19.23;;;11.65;;
32347;SDS011;18821;44.800;10.326;2023-03-14T10:08:25;20.13;;;13.35;;
32347;SDS011;18821;44.800;10.326;2023-03-14T10:10:51;21.20;;;11.75;;
32347;SDS011;18821;44.800;10.326;2023-03-14T10:13:19;20.75;;;11.35;;
32347;SDS011;18821;44.800;10.326;2023-03-14T10:15:48;17.38;;;11.38;;
32347;SDS011;18821;44.800;10.326;2023-03-14T10:18:18;19.25;;;11.75;;
32347;SDS011;18821;44.800;10.326;2023-03-14T10:20:48;16.13;;;9.77;;
32347;SDS011;18821;44.800;10.326;2023-03-14T10:23:24;18.75;;;10.38;;
32347;SDS011;18821;44.800;10.326;2023-03-14T10:26:14;19.70;;;11.32;;
32347;SDS011;18821;44.800;10.326;2023-03-14T10:28:48;18.60;;;11.40;;
32347;SDS011;18821;44.800;10.326;2023-03-14T10:31:17;19.08;;;10.23;;
32347;SDS011;18821;44.800;10.326;2023-03-14T10:33:57;21.58;;;10.70;;
32347;SDS011;18821;44.800;10.326;2023-03-14T10:36:26;14.88;;;9.15;;
32347;SDS011;18821;44.800;10.326;2023-03-14T10:39:38;16.23;;;9.13;;
32347;SDS011;18821;44.800;10.326;2023-03-14T10:41:53;14.52;;;8.68;;
32347;SDS011;18821;44.800;10.326;2023-03-14T10:44:26;19.38;;;10.43;;
32347;SDS011;18821;44.800;10.326;2023-03-14T10:46:59;22.55;;;10.27;;
32347;SDS011;18821;44.800;10.326;2023-03-14T10:49:28;13.45;;;7.95;;
32347;SDS011;18821;44.800;10.326;2023-03-14T10:52:00;11.82;;;8.20;;
32347;SDS011;18821;44.800;10.326;2023-03-14T10:54:38;17.50;;;10.63;;
32347;SDS011;18821;44.800;10.326;2023-03-14T10:57:05;13.80;;;9.52;;
32347;SDS011;18821;44.800;10.326;2023-03-14T10:59:39;17.73;;;9.20;;
32347;SDS011;18821;44.800;10.326;2023-03-14T11:19:00;16.92;;;10.02;;
32347;SDS011;18821;44.800;10.326;2023-03-14T11:27:23;15.63;;;9.98;;
32347;SDS011;18821;44.800;10.326;2023-03-14T11:30:27;14.15;;;9.52;;
32347;SDS011;18821;44.800;10.326;2023-03-14T11:36:13;11.68;;;8.82;;
32347;SDS011;18821;44.800;10.326;2023-03-14T11:41:32;13.32;;;9.23;;
32347;SDS011;18821;44.800;10.326;2023-03-14T11:51:55;16.27;;;9.57;;
32347;SDS011;18821;44.800;10.326;2023-03-14T11:57:31;15.73;;;9.90;;
32347;SDS011;18821;44.800;10.326;2023-03-14T12:10:39;10.43;;;7.43;;
32347;SDS011;18821;44.800;10.326;2023-03-14T12:13:09;14.98;;;10.00;;
32347;SDS011;18821;44.800;10.326;2023-03-14T12:15:41;12.57;;;9.05;;
32347;SDS011;18821;44.800;10.326;2023-03-14T12:18:31;11.68;;;8.32;;
32347;SDS011;18821;44.800;10.326;2023-03-14T12:21:08;13.57;;;8.02;;
32347;SDS011;18821;44.800;10.326;2023-03-14T12:28:38;14.15;;;9.35;;
32347;SDS011;18821;44.800;10.326;2023-03-14T12:34:01;14.68;;;8.93;;
32347;SDS011;18821;44.800;10.326;2023-03-14T12:45:13;11.77;;;7.63;;
32347;SDS011;18821;44.800;10.326;2023-03-14T12:56:52;11.10;;;7.63;;
32347;SDS011;18821;44.800;10.326;2023-03-14T12:59:29;14.15;;;8.50;;
32347;SDS011;18821;44.800;10.326;2023-03-14T13:02:30;14.30;;;8.85;;
32347;SDS011;18821;44.800;10.326;2023-03-14T13:12:56;12.63;;;8.30;;
32347;SDS011;18821;44.800;10.326;2023-03-14T13:15:41;12.27;;;8.57;;
32347;SDS011;18821;44.800;10.326;2023-03-14T13:18:13;14.07;;;8.13;;
32347;SDS011;18821;44.800;10.326;2023-03-14T13:21:02;12.93;;;8.95;;
32347;SDS011;18821;44.800;10.326;2023-03-14T13:23:33;10.77;;;8.02;;
32347;SDS011;18821;44.800;10.326;2023-03-14T13:26:01;11.48;;;7.50;;
32347;SDS011;18821;44.800;10.326;2023-03-14T13:28:28;10.70;;;7.55;;
32347;SDS011;18821;44.800;10.326;2023-03-14T13:30:57;10.20;;;6.82;;
32347;SDS011;18821;44.800;10.326;2023-03-14T13:33:24;11.57;;;8.63;;
32347;SDS011;18821;44.800;10.326;2023-03-14T13:36:04;11.02;;;7.57;;
32347;SDS011;18821;44.800;10.326;2023-03-14T13:38:31;16.52;;;7.72;;
32347;SDS011;18821;44.800;10.326;2023-03-14T13:41:00;15.10;;;8.70;;
32347;SDS011;18821;44.800;10.326;2023-03-14T13:43:31;11.05;;;7.47;;
32347;SDS011;18821;44.800;10.326;2023-03-14T13:46:15;9.93;;;8.05;;
32347;SDS011;18821;44.800;10.326;2023-03-14T13:49:04;10.48;;;7.00;;
32347;SDS011;18821;44.800;10.326;2023-03-14T13:51:32;11.73;;;7.65;;
32347;SDS011;18821;44.800;10.326;2023-03-14T13:53:59;11.05;;;7.32;;
32347;SDS011;18821;44.800;10.326;2023-03-14T13:56:26;15.10;;;7.15;;
32347;SDS011;18821;44.800;10.326;2023-03-14T13:58:54;8.43;;;6.55;;
32347;SDS011;18821;44.800;10.326;2023-03-14T14:01:33;10.82;;;7.72;;
32347;SDS011;18821;44.800;10.326;2023-03-14T14:04:06;12.32;;;8.95;;
32347;SDS011;18821;44.800;10.326;2023-03-14T14:06:37;15.07;;;8.40;;
32347;SDS011;18821;44.800;10.326;2023-03-14T14:14:19;12.60;;;7.88;;
32347;SDS011;18821;44.800;10.326;2023-03-14T14:17:23;9.80;;;6.53;;
32347;SDS011;18821;44.800;10.326;2023-03-14T14:19:53;10.00;;;7.18;;
32347;SDS011;18821;44.800;10.326;2023-03-14T14:22:21;11.75;;;7.55;;
32347;SDS011;18821;44.800;10.326;2023-03-14T14:24:48;13.63;;;8.73;;
32347;SDS011;18821;44.800;10.326;2023-03-14T14:27:32;13.38;;;8.23;;
32347;SDS011;18821;44.800;10.326;2023-03-14T14:32:42;12.48;;;8.00;;
32347;SDS011;18821;44.800;10.326;2023-03-14T14:35:10;11.70;;;7.97;;
32347;SDS011;18821;44.800;10.326;2023-03-14T14:37:47;13.02;;;8.93;;
32347;SDS011;18821;44.800;10.326;2023-03-14T14:40:21;12.45;;;8.82;;
32347;SDS011;18821;44.800;10.326;2023-03-14T14:42:49;14.50;;;9.07;;
32347;SDS011;18821;44.800;10.326;2023-03-14T14:45:16;11.32;;;8.55;;
32347;SDS011;18821;44.800;10.326;2023-03-14T14:47:55;14.52;;;9.95;;
32347;SDS011;18821;44.800;10.326;2023-03-14T14:51:06;13.07;;;9.00;;
32347;SDS011;18821;44.800;10.326;2023-03-14T14:53:29;16.90;;;9.25;;
32347;SDS011;18821;44.800;10.326;2023-03-14T14:56:06;13.82;;;9.15;;
32347;SDS011;18821;44.800;10.326;2023-03-14T14:58:59;16.98;;;9.50;;
32347;SDS011;18821;44.800;10.326;2023-03-14T15:01:36;12.95;;;9.80;;
32347;SDS011;18821;44.800;10.326;2023-03-14T15:04:12;16.10;;;9.40;;
32347;SDS011;18821;44.800;10.326;2023-03-14T15:06:43;15.38;;;10.05;;
32347;SDS011;18821;44.800;10.326;2023-03-14T15:09:13;16.88;;;10.48;;
32347;SDS011;18821;44.800;10.326;2023-03-14T15:11:39;11.75;;;9.70;;
32347;SDS011;18821;44.800;10.326;2023-03-14T15:14:05;14.60;;;10.07;;
32347;SDS011;18821;44.800;10.326;2023-03-14T15:16:32;17.17;;;9.93;;
32347;SDS011;18821;44.800;10.326;2023-03-14T15:18:59;14.57;;;10.48;;
32347;SDS011;18821;44.800;10.326;2023-03-14T15:21:27;17.70;;;10.93;;
32347;SDS011;18821;44.800;10.326;2023-03-14T15:23:53;14.23;;;10.85;;
32347;SDS011;18821;44.800;10.326;2023-03-14T15:26:21;15.52;;;11.32;;
32347;SDS011;18821;44.800;10.326;2023-03-14T15:28:52;14.50;;;11.90;;
32347;SDS011;18821;44.800;10.326;2023-03-14T15:31:30;18.05;;;11.35;;
32347;SDS011;18821;44.800;10.326;2023-03-14T15:33:57;17.35;;;12.40;;
32347;SDS011;18821;44.800;10.326;2023-03-14T15:36:26;18.00;;;12.05;;
32347;SDS011;18821;44.800;10.326;2023-03-14T15:38:57;18.95;;;13.05;;
32347;SDS011;18821;44.800;10.326;2023-03-14T15:41:37;22.67;;;13.98;;
32347;SDS011;18821;44.800;10.326;2023-03-14T15:44:03;18.48;;;12.88;;
32347;SDS011;18821;44.800;10.326;2023-03-14T15:46:31;22.92;;;13.68;;
32347;SDS011;18821;44.800;10.326;2023-03-14T15:48:57;20.20;;;12.57;;
32347;SDS011;18821;44.800;10.326;2023-03-14T15:51:25;24.92;;;11.80;;
32347;SDS011;18821;44.800;10.326;2023-03-14T15:53:51;20.73;;;12.10;;
32347;SDS011;18821;44.800;10.326;2023-03-14T15:56:17;19.38;;;12.82;;
32347;SDS011;18821;44.800;10.326;2023-03-14T15:58:44;19.38;;;11.45;;
32347;SDS011;18821;44.800;10.326;2023-03-14T16:01:14;16.10;;;10.45;;
32347;SDS011;18821;44.800;10.326;2023-03-14T16:03:43;19.20;;;11.32;;
32347;SDS011;18821;44.800;10.326;2023-03-14T16:06:10;14.07;;;9.80;;
32347;SDS011;18821;44.800;10.326;2023-03-14T16:08:37;15.48;;;11.13;;
32347;SDS011;18821;44.800;10.326;2023-03-14T16:11:03;15.82;;;11.52;;
32347;SDS011;18821;44.800;10.326;2023-03-14T16:13:30;18.33;;;12.02;;